createdAt,value
2023-07-11T00:00:32.524Z,0
2023-07-11T00:01:32.640Z,0
2023-07-11T00:02:32.560Z,0
2023-07-11T00:03:32.272Z,0
2023-07-11T00:04:32.523Z,0
2023-07-11T00:05:32.628Z,0
2023-07-11T00:06:32.600Z,0
2023-07-11T00:07:32.267Z,0
2023-07-11T00:08:32.549Z,0
2023-07-11T00:09:32.542Z,0
2023-07-11T00:10:32.526Z,0
2023-07-11T00:11:32.216Z,0
2023-07-11T00:12:32.512Z,0
2023-07-11T00:13:32.528Z,0
2023-07-11T00:14:32.495Z,0
2023-07-11T00:15:32.223Z,0
2023-07-11T00:16:32.555Z,0
2023-07-11T00:17:32.622Z,0
2023-07-11T00:18:32.524Z,0
2023-07-11T00:19:32.207Z,0
2023-07-11T00:20:32.523Z,0
2023-07-11T00:21:32.609Z,0
2023-07-11T00:22:32.539Z,0
2023-07-11T00:23:32.223Z,0
2023-07-11T00:24:32.519Z,0
2023-07-11T00:25:32.553Z,0
2023-07-11T00:26:32.489Z,0
2023-07-11T00:27:32.195Z,0
2023-07-11T00:28:32.534Z,0
2023-07-11T00:29:32.515Z,0
2023-07-11T00:30:32.547Z,0
2023-07-11T00:31:32.192Z,0
2023-07-11T00:32:32.531Z,0
2023-07-11T00:33:32.512Z,0
2023-07-11T00:34:32.541Z,0
2023-07-11T00:35:32.166Z,0
2023-07-11T00:36:32.521Z,0
2023-07-11T00:37:32.515Z,0
2023-07-11T00:38:32.520Z,0
2023-07-11T00:39:32.212Z,0
2023-07-11T00:40:32.505Z,0
2023-07-11T00:41:32.508Z,0
2023-07-11T00:42:32.584Z,0
2023-07-11T00:43:32.210Z,0
2023-07-11T00:44:32.508Z,0
2023-07-11T00:45:32.520Z,0
2023-07-11T00:46:32.515Z,0
2023-07-11T00:47:32.286Z,0
2023-07-11T00:48:32.572Z,0
2023-07-11T00:49:32.504Z,0
2023-07-11T00:50:32.532Z,0
2023-07-11T00:51:32.121Z,0
2023-07-11T00:52:32.535Z,0
2023-07-11T00:53:32.527Z,0
2023-07-11T00:54:32.523Z,0
2023-07-11T00:55:32.165Z,0
2023-07-11T00:56:32.540Z,0
2023-07-11T00:57:32.565Z,0
2023-07-11T00:58:32.538Z,0
2023-07-11T00:59:32.193Z,0
2023-07-11T01:00:32.534Z,0
2023-07-11T01:01:32.611Z,0
2023-07-11T01:02:32.597Z,0
2023-07-11T01:03:32.305Z,0
2023-07-11T01:04:32.551Z,0
2023-07-11T01:05:32.541Z,0
2023-07-11T01:06:32.492Z,0
2023-07-11T01:07:32.119Z,0
2023-07-11T01:08:32.494Z,0
2023-07-11T01:09:32.490Z,0
2023-07-11T01:10:32.508Z,0
2023-07-11T01:11:32.138Z,0
2023-07-11T01:12:32.502Z,0
2023-07-11T01:13:32.538Z,0
2023-07-11T01:14:32.582Z,0
2023-07-11T01:15:32.136Z,0
2023-07-11T01:16:32.606Z,0
2023-07-11T01:17:32.551Z,0
2023-07-11T01:18:32.535Z,0
2023-07-11T01:19:32.122Z,0
2023-07-11T01:20:32.525Z,0
2023-07-11T01:21:32.546Z,0
2023-07-11T01:22:32.476Z,0
2023-07-11T01:23:32.126Z,0
2023-07-11T01:24:32.504Z,0
2023-07-11T01:25:32.528Z,0
2023-07-11T01:26:32.531Z,0
2023-07-11T01:27:32.083Z,0
2023-07-11T01:28:32.485Z,0
2023-07-11T01:29:32.508Z,0
2023-07-11T01:30:32.603Z,0
2023-07-11T01:31:32.104Z,0
2023-07-11T01:32:32.523Z,0
2023-07-11T01:33:32.515Z,0
2023-07-11T01:34:32.587Z,0
2023-07-11T01:35:32.098Z,0
2023-07-11T01:36:32.487Z,0
2023-07-11T01:37:32.505Z,0
2023-07-11T01:38:32.501Z,0
2023-07-11T01:39:32.079Z,0
2023-07-11T01:40:32.699Z,0
2023-07-11T01:41:32.649Z,0
2023-07-11T01:42:32.641Z,0
2023-07-11T01:43:32.197Z,0
2023-07-11T01:44:32.628Z,0
2023-07-11T01:45:32.607Z,0
2023-07-11T01:46:32.690Z,0
2023-07-11T01:47:32.303Z,0
2023-07-11T01:48:32.615Z,0
2023-07-11T01:49:32.608Z,0
2023-07-11T01:50:32.604Z,0
2023-07-11T01:51:32.274Z,0
2023-07-11T01:52:32.650Z,0
2023-07-11T01:53:32.687Z,0
2023-07-11T01:54:32.607Z,0
2023-07-11T01:55:32.131Z,0
2023-07-11T01:56:32.667Z,0
2023-07-11T01:57:32.637Z,0
2023-07-11T01:58:32.598Z,0
2023-07-11T01:59:32.213Z,0
2023-07-11T02:00:32.621Z,0
2023-07-11T02:01:32.547Z,0.36
2023-07-11T02:02:32.561Z,0.36
2023-07-11T02:03:32.211Z,1.22
2023-07-11T02:04:32.484Z,0.85
2023-07-11T02:05:32.520Z,0.36
2023-07-11T02:06:32.492Z,0.36
2023-07-11T02:07:32.017Z,1.22
2023-07-11T02:08:32.545Z,0.36
2023-07-11T02:09:32.508Z,0.36
2023-07-11T02:10:32.538Z,2.08
2023-07-11T02:11:32.006Z,1.71
2023-07-11T02:12:32.517Z,1.22
2023-07-11T02:13:32.519Z,1.22
2023-07-11T02:14:32.476Z,1.71
2023-07-11T02:15:32.032Z,2.08
2023-07-11T02:16:32.618Z,1.71
2023-07-11T02:17:32.646Z,1.71
2023-07-11T02:18:32.523Z,2.08
2023-07-11T02:19:32.068Z,2.57
2023-07-11T02:20:32.494Z,2.08
2023-07-11T02:21:32.501Z,2.08
2023-07-11T02:22:32.556Z,2.94
2023-07-11T02:23:32.007Z,2.94
2023-07-11T02:24:32.502Z,2.57
2023-07-11T02:25:32.515Z,2.08
2023-07-11T02:26:32.496Z,2.94
2023-07-11T02:27:31.998Z,2.57
2023-07-11T02:28:32.506Z,3.43
2023-07-11T02:29:32.507Z,3.43
2023-07-11T02:30:32.539Z,3.43
2023-07-11T02:31:32.131Z,2.94
2023-07-11T02:32:32.537Z,3.43
2023-07-11T02:33:32.482Z,3.43
2023-07-11T02:34:32.490Z,4.28
2023-07-11T02:35:32.002Z,4.28
2023-07-11T02:36:32.519Z,4.77
2023-07-11T02:37:32.498Z,4.77
2023-07-11T02:38:32.636Z,4.77
2023-07-11T02:39:32.005Z,4.28
2023-07-11T02:40:32.542Z,4.77
2023-07-11T02:41:32.542Z,5.14
2023-07-11T02:42:32.514Z,5.99
2023-07-11T02:43:31.966Z,5.63
2023-07-11T02:44:32.623Z,5.14
2023-07-11T02:45:32.501Z,5.99
2023-07-11T02:46:32.592Z,5.63
2023-07-11T02:47:33.031Z,5.99
2023-07-11T02:48:32.499Z,6.48
2023-07-11T02:49:32.529Z,5.99
2023-07-11T02:50:32.522Z,5.99
2023-07-11T02:51:32.001Z,6.48
2023-07-11T02:52:32.516Z,5.99
2023-07-11T02:53:32.495Z,6.85
2023-07-11T02:54:32.505Z,6.48
2023-07-11T02:55:31.990Z,7.34
2023-07-11T02:56:32.470Z,7.7
2023-07-11T02:57:32.500Z,7.7
2023-07-11T02:58:32.513Z,7.34
2023-07-11T02:59:31.979Z,7.7
2023-07-11T03:00:32.531Z,7.34
2023-07-11T03:01:32.509Z,8.19
2023-07-11T03:02:32.538Z,8.19
2023-07-11T03:03:31.998Z,8.56
2023-07-11T03:04:32.465Z,8.19
2023-07-11T03:05:32.562Z,9.05
2023-07-11T03:06:32.537Z,8.56
2023-07-11T03:07:31.974Z,8.56
2023-07-11T03:08:32.502Z,9.05
2023-07-11T03:09:32.500Z,9.05
2023-07-11T03:10:32.548Z,9.05
2023-07-11T03:11:32.106Z,9.91
2023-07-11T03:12:32.800Z,9.91
2023-07-11T03:13:32.665Z,9.54
2023-07-11T03:14:32.520Z,10.39
2023-07-11T03:15:32.053Z,9.91
2023-07-11T03:16:32.723Z,9.91
2023-07-11T03:17:32.826Z,10.39
2023-07-11T03:18:32.629Z,9.91
2023-07-11T03:19:32.098Z,9.91
2023-07-11T03:20:32.488Z,10.39
2023-07-11T03:21:32.609Z,10.77
2023-07-11T03:22:32.671Z,10.77
2023-07-11T03:23:32.078Z,10.39
2023-07-11T03:24:32.629Z,11.62
2023-07-11T03:25:32.649Z,11.62
2023-07-11T03:26:32.510Z,11.25
2023-07-11T03:27:32.090Z,12.11
2023-07-11T03:28:32.512Z,10.39
2023-07-11T03:29:32.496Z,10.39
2023-07-11T03:30:32.492Z,10.77
2023-07-11T03:31:31.898Z,10.77
2023-07-11T03:32:32.540Z,10.77
2023-07-11T03:33:32.655Z,10.39
2023-07-11T03:34:32.657Z,11.25
2023-07-11T03:35:32.059Z,10.77
2023-07-11T03:36:32.624Z,11.62
2023-07-11T03:37:32.503Z,11.62
2023-07-11T03:38:32.647Z,12.97
2023-07-11T03:39:31.886Z,12.48
2023-07-11T03:40:32.604Z,13.33
2023-07-11T03:41:32.585Z,12.97
2023-07-11T03:42:32.605Z,13.82
2023-07-11T03:43:32.005Z,14.31
2023-07-11T03:44:32.636Z,14.31
2023-07-11T03:45:32.590Z,13.33
2023-07-11T03:46:32.562Z,14.68
2023-07-11T03:47:32.028Z,15.53
2023-07-11T03:48:32.509Z,14.68
2023-07-11T03:49:32.512Z,15.17
2023-07-11T03:50:32.497Z,15.53
2023-07-11T03:51:32.044Z,15.53
2023-07-11T03:52:32.546Z,16.02
2023-07-11T03:53:32.633Z,16.39
2023-07-11T03:54:32.490Z,16.39
2023-07-11T03:55:32.032Z,15.53
2023-07-11T03:56:32.507Z,16.02
2023-07-11T03:57:32.501Z,16.39
2023-07-11T03:58:32.529Z,16.39
2023-07-11T03:59:31.887Z,16.39
2023-07-11T04:00:32.562Z,16.39
2023-07-11T04:01:32.529Z,16.02
2023-07-11T04:02:32.509Z,15.53
2023-07-11T04:03:32.000Z,16.39
2023-07-11T04:04:32.513Z,16.02
2023-07-11T04:05:32.495Z,16.39
2023-07-11T04:06:32.473Z,16.39
2023-07-11T04:07:31.871Z,15.53
2023-07-11T04:08:32.501Z,16.39
2023-07-11T04:09:32.483Z,17.25
2023-07-11T04:10:32.492Z,18.11
2023-07-11T04:11:31.894Z,17.73
2023-07-11T04:12:32.514Z,17.73
2023-07-11T04:13:32.514Z,17.25
2023-07-11T04:14:32.507Z,18.11
2023-07-11T04:15:31.834Z,18.6
2023-07-11T04:16:32.488Z,19.08
2023-07-11T04:17:32.537Z,18.6
2023-07-11T04:18:32.505Z,18.6
2023-07-11T04:19:31.822Z,19.08
2023-07-11T04:20:32.496Z,19.08
2023-07-11T04:21:32.498Z,18.6
2023-07-11T04:22:32.496Z,19.08
2023-07-11T04:23:31.870Z,17.73
2023-07-11T04:24:32.474Z,19.08
2023-07-11T04:25:32.484Z,20.8
2023-07-11T04:26:32.474Z,20.8
2023-07-11T04:27:31.883Z,20.31
2023-07-11T04:28:32.480Z,21.16
2023-07-11T04:29:32.469Z,21.16
2023-07-11T04:30:32.698Z,21.65
2023-07-11T04:31:31.855Z,22.51
2023-07-11T04:32:32.534Z,22.02
2023-07-11T04:33:32.484Z,22.02
2023-07-11T04:34:32.469Z,23.36
2023-07-11T04:35:31.769Z,23.36
2023-07-11T04:36:32.532Z,22.51
2023-07-11T04:37:32.480Z,23.85
2023-07-11T04:38:32.612Z,22.87
2023-07-11T04:39:31.839Z,23.85
2023-07-11T04:40:32.478Z,23.85
2023-07-11T04:41:32.507Z,24.71
2023-07-11T04:42:32.494Z,24.71
2023-07-11T04:43:31.837Z,25.56
2023-07-11T04:44:32.484Z,25.56
2023-07-11T04:45:32.485Z,24.71
2023-07-11T04:46:32.492Z,24.71
2023-07-11T04:47:31.831Z,25.94
2023-07-11T04:48:32.480Z,25.94
2023-07-11T04:49:32.494Z,26.42
2023-07-11T04:50:32.485Z,26.42
2023-07-11T04:51:31.840Z,26.42
2023-07-11T04:52:32.543Z,27.28
2023-07-11T04:53:32.455Z,26.79
2023-07-11T04:54:32.527Z,26.79
2023-07-11T04:55:31.803Z,26.79
2023-07-11T04:56:32.471Z,27.65
2023-07-11T04:57:32.676Z,27.28
2023-07-11T04:58:32.478Z,27.65
2023-07-11T04:59:31.799Z,27.65
2023-07-11T05:00:32.455Z,28.14
2023-07-11T05:01:32.534Z,27.65
2023-07-11T05:02:32.504Z,28.14
2023-07-11T05:03:31.810Z,28.14
2023-07-11T05:04:32.733Z,28.99
2023-07-11T05:05:32.452Z,29.48
2023-07-11T05:06:32.488Z,29.48
2023-07-11T05:07:32.513Z,30.34
2023-07-11T05:08:32.485Z,30.34
2023-07-11T05:09:32.569Z,32.42
2023-07-11T05:10:32.554Z,32.9
2023-07-11T05:11:31.798Z,33.76
2023-07-11T05:12:32.524Z,34.62
2023-07-11T05:13:32.500Z,35.11
2023-07-11T05:14:32.511Z,36.82
2023-07-11T05:15:32.745Z,35.97
2023-07-11T05:16:32.522Z,39.02
2023-07-11T05:17:32.545Z,83.68
2023-07-11T05:18:32.523Z,161.36
2023-07-11T05:19:32.602Z,206.38
2023-07-11T05:20:32.480Z,212.98
2023-07-11T05:21:32.525Z,214.7
2023-07-11T05:22:32.467Z,174.81
2023-07-11T05:23:32.496Z,124.9
2023-07-11T05:24:32.450Z,96.27
2023-07-11T05:25:32.478Z,51.99
2023-07-11T05:26:32.501Z,207.73
2023-07-11T05:27:32.541Z,236.84
2023-07-11T05:28:32.487Z,228.15
2023-07-11T05:29:33.354Z,248.95
2023-07-11T05:30:43.734Z,245.04
2023-07-11T05:31:47.806Z,251.15
2023-07-11T05:32:52.609Z,254.58
2023-07-11T05:33:55.756Z,256.29
2023-07-11T05:34:59.743Z,261.07
2023-07-11T05:36:04.170Z,258.98
2023-07-11T05:37:07.779Z,264.61
2023-07-11T05:38:11.734Z,267.55
2023-07-11T05:39:15.799Z,271.1
2023-07-11T05:40:19.703Z,270.61
2023-07-11T05:41:23.747Z,204.3
2023-07-11T05:42:27.753Z,271.95
2023-07-11T05:43:31.747Z,277.58
2023-07-11T05:44:32.528Z,281.49
2023-07-11T05:45:32.471Z,291.03
2023-07-11T05:46:32.670Z,296.66
2023-07-11T05:47:32.526Z,293.24
2023-07-11T05:48:32.521Z,281
2023-07-11T05:49:32.484Z,298.37
2023-07-11T05:50:32.456Z,300.95
2023-07-11T05:51:32.463Z,304.86
2023-07-11T05:52:32.480Z,301.93
2023-07-11T05:53:32.483Z,310.12
2023-07-11T05:54:32.482Z,311.47
2023-07-11T05:55:32.480Z,310.12
2023-07-11T05:56:32.542Z,303.64
2023-07-11T05:57:32.523Z,73.28
2023-07-11T05:58:32.483Z,320.52
2023-07-11T05:59:32.489Z,330.92
2023-07-11T06:00:32.680Z,324.44
2023-07-11T06:01:32.508Z,327.86
2023-07-11T06:02:32.499Z,332.27
2023-07-11T06:03:32.623Z,338.75
2023-07-11T06:04:32.535Z,343.03
2023-07-11T06:05:32.482Z,193.41
2023-07-11T06:06:32.489Z,255.44
2023-07-11T06:07:32.526Z,353.55
2023-07-11T06:08:32.474Z,60.19
2023-07-11T06:09:33.899Z,361.74
2023-07-11T06:10:32.474Z,378.63
2023-07-11T06:11:32.488Z,361.25
2023-07-11T06:12:32.485Z,366.52
2023-07-11T06:13:32.524Z,372.64
2023-07-11T06:14:32.489Z,385.11
2023-07-11T06:15:32.467Z,400.4
2023-07-11T06:16:32.568Z,393.43
2023-07-11T06:17:32.501Z,391.23
2023-07-11T06:18:32.464Z,408.11
2023-07-11T06:19:32.508Z,400.4
2023-07-11T06:20:32.496Z,389.88
2023-07-11T06:21:32.467Z,372.64
2023-07-11T06:22:32.467Z,367.37
2023-07-11T06:23:32.499Z,375.57
2023-07-11T06:24:32.477Z,382.54
2023-07-11T06:25:32.524Z,381.69
2023-07-11T06:26:32.483Z,386.46
2023-07-11T06:27:32.520Z,395.15
2023-07-11T06:28:33.072Z,399.42
2023-07-11T06:29:32.591Z,400.77
2023-07-11T06:30:32.496Z,409.94
2023-07-11T06:31:32.503Z,418.15
2023-07-11T06:32:32.502Z,414.23
2023-07-11T06:33:32.522Z,210.29
2023-07-11T06:34:32.476Z,445.42
2023-07-11T06:35:32.512Z,428.18
2023-07-11T06:36:32.500Z,385.6
2023-07-11T06:37:32.481Z,116.22
2023-07-11T06:38:32.500Z,167.85
2023-07-11T06:39:32.472Z,188.64
2023-07-11T06:40:32.493Z,83.19
2023-07-11T06:41:32.507Z,110.96
2023-07-11T06:42:32.535Z,57.25
2023-07-11T06:43:32.508Z,55.9
2023-07-11T06:44:32.526Z,71.93
2023-07-11T06:45:32.495Z,321.01
2023-07-11T06:46:32.521Z,260.69
2023-07-11T06:47:32.487Z,142.27
2023-07-11T06:48:32.509Z,376.06
2023-07-11T06:49:32.461Z,464.14
2023-07-11T06:50:32.493Z,87.96
2023-07-11T06:51:32.466Z,301.93
2023-07-11T06:52:32.490Z,296.66
2023-07-11T06:53:32.462Z,403.83
2023-07-11T06:54:32.477Z,468.42
2023-07-11T06:55:32.467Z,309.27
2023-07-11T06:56:32.492Z,474.91
2023-07-11T06:57:32.484Z,346.95
2023-07-11T06:58:32.482Z,317.1
2023-07-11T06:59:32.479Z,191.7
2023-07-11T07:00:32.835Z,363.46
2023-07-11T07:01:37.340Z,255.93
2023-07-11T07:02:32.779Z,313.54
2023-07-11T07:03:32.673Z,392.57
2023-07-11T07:04:32.461Z,422.91
2023-07-11T07:05:32.461Z,303.64
2023-07-11T07:06:32.460Z,396.49
2023-07-11T07:07:32.458Z,197.81
2023-07-11T07:08:32.537Z,304.86
2023-07-11T07:09:32.499Z,505.74
2023-07-11T07:10:32.500Z,507.94
2023-07-11T07:11:32.566Z,515.28
2023-07-11T07:12:32.493Z,515.77
2023-07-11T07:13:32.557Z,518.82
2023-07-11T07:14:32.496Z,522.25
2023-07-11T07:15:32.494Z,524.82
2023-07-11T07:16:32.511Z,526.16
2023-07-11T07:17:32.516Z,529.59
2023-07-11T07:18:32.470Z,534.36
2023-07-11T07:19:32.506Z,535.22
2023-07-11T07:20:36.966Z,536.08
2023-07-11T07:21:32.444Z,540.84
2023-07-11T07:22:32.447Z,552.59
2023-07-11T07:23:32.477Z,549.53
2023-07-11T07:24:32.499Z,543.91
2023-07-11T07:25:32.564Z,545.25
2023-07-11T07:26:32.515Z,546.96
2023-07-11T07:27:32.467Z,540.48
2023-07-11T07:28:32.494Z,543.05
2023-07-11T07:29:32.471Z,553.08
2023-07-11T07:30:32.500Z,560.91
2023-07-11T07:31:32.533Z,565.19
2023-07-11T07:32:32.505Z,565.19
2023-07-11T07:33:32.515Z,571.31
2023-07-11T07:34:32.457Z,578.65
2023-07-11T07:35:32.468Z,577.79
2023-07-11T07:36:32.528Z,581.7
2023-07-11T07:37:32.473Z,581.22
2023-07-11T07:38:32.486Z,585.62
2023-07-11T07:39:32.587Z,589.53
2023-07-11T07:40:32.526Z,590.39
2023-07-11T07:41:32.469Z,595.16
2023-07-11T07:42:32.464Z,597.73
2023-07-11T07:43:32.498Z,598.22
2023-07-11T07:44:32.481Z,598.59
2023-07-11T07:45:32.479Z,603.85
2023-07-11T07:46:32.570Z,607.77
2023-07-11T07:47:32.527Z,606.79
2023-07-11T07:48:32.472Z,608.99
2023-07-11T07:49:41.908Z,614.62
2023-07-11T07:50:32.494Z,618.53
2023-07-11T07:51:32.472Z,622.45
2023-07-11T07:52:32.498Z,625.5
2023-07-11T07:53:32.469Z,629.42
2023-07-11T07:54:32.489Z,629.42
2023-07-11T07:55:32.483Z,630.28
2023-07-11T07:56:32.476Z,631.99
2023-07-11T07:57:32.487Z,637.25
2023-07-11T07:58:42.612Z,638.96
2023-07-11T07:59:32.472Z,639.33
2023-07-11T08:00:32.482Z,639.82
2023-07-11T08:01:32.481Z,644.1
2023-07-11T08:02:32.498Z,648.01
2023-07-11T08:03:32.531Z,648.87
2023-07-11T08:04:32.576Z,646.3
2023-07-11T08:05:32.487Z,648.87
2023-07-11T08:06:32.468Z,651.56
2023-07-11T08:07:32.574Z,654.62
2023-07-11T08:08:32.497Z,661.11
2023-07-11T08:09:32.475Z,662.33
2023-07-11T08:10:32.490Z,662.82
2023-07-11T08:11:32.477Z,663.67
2023-07-11T08:12:32.516Z,665.87
2023-07-11T08:13:38.585Z,351.71
2023-07-11T08:14:32.556Z,669.3
2023-07-11T08:15:32.452Z,211.15
2023-07-11T08:16:34.351Z,645.45
2023-07-11T08:17:32.507Z,433.8
2023-07-11T08:18:32.472Z,681.41
2023-07-11T08:19:32.455Z,684.47
2023-07-11T08:20:32.447Z,172.98
2023-07-11T08:21:32.521Z,181.67
2023-07-11T08:22:32.467Z,690.58
2023-07-11T08:23:32.521Z,610.7
2023-07-11T08:24:32.461Z,566.91
2023-07-11T08:25:32.480Z,683.24
2023-07-11T08:26:32.466Z,314.4
2023-07-11T08:27:32.454Z,701.48
2023-07-11T08:28:32.465Z,703.19
2023-07-11T08:29:32.478Z,707.96
2023-07-11T08:30:32.522Z,711.02
2023-07-11T08:31:32.484Z,680.19
2023-07-11T08:32:32.498Z,714.81
2023-07-11T08:33:32.465Z,431.6
2023-07-11T08:34:32.538Z,289.69
2023-07-11T08:35:32.469Z,422.06
2023-07-11T08:36:32.493Z,161.73
2023-07-11T08:37:32.464Z,273.3
2023-07-11T08:38:32.452Z,644.59
2023-07-11T08:39:32.465Z,717.01
2023-07-11T08:40:47.094Z,431.6
2023-07-11T08:41:32.472Z,725.7
2023-07-11T08:42:32.487Z,164.78
2023-07-11T08:43:32.464Z,734.38
2023-07-11T08:44:32.483Z,422.91
2023-07-11T08:45:32.472Z,733.04
2023-07-11T08:46:32.490Z,182.53
2023-07-11T08:47:32.775Z,740.87
2023-07-11T08:48:32.471Z,159.53
2023-07-11T08:49:32.459Z,641.16
2023-07-11T08:50:32.492Z,741.36
2023-07-11T08:51:32.461Z,73.28
2023-07-11T08:52:32.458Z,741.72
2023-07-11T08:53:32.474Z,74.99
2023-07-11T08:54:32.470Z,709.18
2023-07-11T08:55:32.498Z,734.87
2023-07-11T08:56:32.445Z,206.87
2023-07-11T08:57:32.462Z,141.42
2023-07-11T08:58:32.461Z,243.69
2023-07-11T08:59:32.477Z,142.27
2023-07-11T09:00:32.484Z,233.29
2023-07-11T09:01:32.529Z,388.66
2023-07-11T09:02:32.485Z,235
2023-07-11T09:03:32.560Z,430.74
2023-07-11T09:04:32.470Z,271.46
2023-07-11T09:05:32.458Z,164.29
2023-07-11T09:06:32.480Z,330.06
2023-07-11T09:07:32.542Z,204.66
2023-07-11T09:08:32.446Z,140.07
2023-07-11T09:09:32.460Z,150.96
2023-07-11T09:10:47.095Z,186.07
2023-07-11T09:11:32.547Z,528.74
2023-07-11T09:12:32.462Z,116.58
2023-07-11T09:13:32.514Z,391.23
2023-07-11T09:14:32.437Z,483.59
2023-07-11T09:15:32.431Z,308.78
2023-07-11T09:16:32.494Z,550.51
2023-07-11T09:17:32.481Z,171.27
2023-07-11T09:18:33.621Z,85.88
2023-07-11T09:19:32.482Z,94.93
2023-07-11T09:20:32.486Z,425.97
2023-07-11T09:21:32.510Z,383.89
2023-07-11T09:22:32.475Z,332.27
2023-07-11T09:23:38.955Z,452.4
2023-07-11T09:24:32.864Z,402.12
2023-07-11T09:25:32.451Z,288.47
2023-07-11T09:26:32.472Z,241.98
2023-07-11T09:27:32.457Z,628.07
2023-07-11T09:28:32.491Z,439.79
2023-07-11T09:29:32.516Z,253.73
2023-07-11T09:30:32.442Z,520.05
2023-07-11T09:31:32.616Z,769.98
2023-07-11T09:32:32.607Z,101.9
2023-07-11T09:33:32.497Z,275.86
2023-07-11T09:34:32.449Z,415.57
2023-07-11T09:35:32.455Z,360.03
2023-07-11T09:36:32.481Z,251.15
2023-07-11T09:37:32.569Z,264.61
2023-07-11T09:38:32.443Z,308.78
2023-07-11T09:39:32.466Z,95.42
2023-07-11T09:40:32.464Z,89.31
2023-07-11T09:41:45.013Z,163.44
2023-07-11T09:42:32.450Z,69.73
2023-07-11T09:43:32.451Z,640.31
2023-07-11T09:44:32.463Z,179.59
2023-07-11T09:45:32.483Z,333.49
2023-07-11T09:46:32.651Z,93.58
2023-07-11T09:47:32.566Z,589.05
2023-07-11T09:48:32.436Z,482.74
2023-07-11T09:49:32.476Z,153.53
2023-07-11T09:50:39.877Z,439.43
2023-07-11T09:51:32.469Z,251.52
2023-07-11T09:52:32.460Z,284.06
2023-07-11T09:53:32.533Z,482.37
2023-07-11T09:54:32.451Z,231.22
2023-07-11T09:55:32.462Z,163.44
2023-07-11T09:56:32.474Z,89.79
2023-07-11T09:57:32.470Z,72.42
2023-07-11T09:58:32.486Z,78.05
2023-07-11T09:59:32.481Z,302.78
2023-07-11T10:00:32.446Z,237.21
2023-07-11T10:01:32.466Z,328.71
2023-07-11T10:02:32.495Z,126.12
2023-07-11T10:03:32.459Z,134.44
2023-07-11T10:04:32.542Z,204.3
2023-07-11T10:05:32.464Z,194.76
2023-07-11T10:07:32.459Z,88.82
2023-07-11T10:08:32.456Z,482.74
2023-07-11T10:09:32.487Z,185.22
2023-07-11T10:10:32.470Z,168.21
2023-07-11T10:11:32.464Z,86.73
2023-07-11T10:12:32.493Z,686.18
2023-07-11T10:13:38.395Z,80.25
2023-07-11T10:14:32.763Z,71.93
2023-07-11T10:15:32.470Z,116.58
2023-07-11T10:16:32.458Z,202.59
2023-07-11T10:17:32.575Z,314.89
2023-07-11T10:18:32.512Z,70.71
2023-07-11T10:19:32.477Z,112.3
2023-07-11T10:20:32.473Z,186.93
2023-07-11T10:21:40.368Z,69.73
2023-07-11T10:22:32.950Z,87.96
2023-07-11T10:23:32.486Z,562.13
2023-07-11T10:24:32.436Z,68.51
2023-07-11T10:25:32.467Z,624.65
2023-07-11T10:26:32.463Z,505.37
2023-07-11T10:27:32.473Z,669.79
2023-07-11T10:28:32.471Z,366.03
2023-07-11T10:29:32.449Z,201.24
2023-07-11T10:30:32.437Z,94.07
2023-07-11T10:31:32.485Z,186.07
2023-07-11T10:32:32.472Z,423.28
2023-07-11T10:33:40.433Z,143.99
2023-07-11T10:34:32.499Z,63.24
2023-07-11T10:35:32.502Z,211.15
2023-07-11T10:36:32.468Z,94.07
2023-07-11T10:37:32.445Z,181.67
2023-07-11T10:38:32.463Z,332.27
2023-07-11T10:39:32.490Z,73.65
2023-07-11T10:40:32.484Z,69.73
2023-07-11T10:41:32.440Z,103.13
2023-07-11T10:42:32.433Z,77.19
2023-07-11T10:43:32.437Z,133.1
2023-07-11T10:44:32.459Z,152.68
2023-07-11T10:45:32.438Z,62.02
2023-07-11T10:46:32.531Z,163.93
2023-07-11T10:47:32.506Z,587.7
2023-07-11T10:48:32.429Z,70.71
2023-07-11T10:49:32.441Z,78.9
2023-07-11T10:50:32.443Z,241.98
2023-07-11T10:51:32.505Z,477.96
2023-07-11T10:52:32.459Z,203.44
2023-07-11T10:53:32.461Z,265.83
2023-07-11T10:54:32.457Z,465.86
2023-07-11T10:55:32.450Z,103.61
2023-07-11T10:56:32.440Z,93.22
2023-07-11T10:57:42.707Z,59.82
2023-07-11T10:58:32.482Z,71.93
2023-07-11T10:59:32.451Z,78.9
2023-07-11T11:00:32.485Z,62.02
2023-07-11T11:01:32.464Z,245.04
2023-07-11T11:02:32.503Z,92.73
2023-07-11T11:03:32.651Z,294.46
2023-07-11T11:04:32.470Z,248.1
2023-07-11T11:05:32.479Z,476.74
2023-07-11T11:06:32.460Z,165.64
2023-07-11T11:07:32.464Z,279.78
2023-07-11T11:08:32.474Z,89.31
2023-07-11T11:09:32.408Z,362.6
2023-07-11T11:10:32.493Z,634.19
2023-07-11T11:11:32.470Z,77.19
2023-07-11T11:12:32.474Z,214.21
2023-07-11T11:13:32.504Z,143.5
2023-07-11T11:14:32.479Z,101.05
2023-07-11T11:15:32.460Z,88.45
2023-07-11T11:16:32.443Z,150.96
2023-07-11T11:17:32.457Z,107.04
2023-07-11T11:18:32.491Z,130.9
2023-07-11T11:19:32.441Z,234.15
2023-07-11T11:20:32.438Z,72.42
2023-07-11T11:21:47.791Z,271.46
2023-07-11T11:22:32.445Z,270.24
2023-07-11T11:23:32.440Z,304.86
2023-07-11T11:24:32.434Z,218.61
2023-07-11T11:25:32.449Z,217.76
2023-07-11T11:26:32.505Z,680.19
2023-07-11T11:27:32.420Z,514.42
2023-07-11T11:28:32.530Z,312.69
2023-07-11T11:29:32.476Z,487.14
2023-07-11T11:30:32.547Z,461.57
2023-07-11T11:31:32.430Z,575.59
2023-07-11T11:32:32.549Z,377.4
2023-07-11T11:33:32.495Z,635.53
2023-07-11T11:34:32.464Z,354.78
2023-07-11T11:35:32.461Z,793.84
2023-07-11T11:36:32.554Z,272.81
2023-07-11T11:37:32.437Z,598.59
2023-07-11T11:38:34.811Z,514.42
2023-07-11T11:39:32.452Z,683.61
2023-07-11T11:40:32.456Z,816.35
2023-07-11T11:41:32.461Z,815.49
2023-07-11T11:42:32.428Z,634.55
2023-07-11T11:44:31.995Z,521.4
2023-07-11T11:46:26.792Z,800.81
2023-07-11T11:46:34.692Z,674.07
2023-07-11T11:48:49.977Z,786.87
2023-07-11T11:51:32.479Z,794.7
2023-07-11T11:52:32.574Z,798.61
2023-07-11T11:53:32.427Z,799.46
2023-07-11T11:54:32.427Z,802.89
2023-07-11T11:55:32.480Z,802.04
2023-07-11T11:56:32.664Z,796.9
2023-07-11T11:57:32.497Z,788.58
2023-07-11T11:58:32.463Z,778.67
2023-07-11T11:59:32.461Z,775.12
2023-07-11T12:00:32.452Z,769.49
2023-07-11T12:01:32.545Z,767.78
2023-07-11T12:02:32.484Z,768.27
2023-07-11T12:03:32.495Z,510.14
2023-07-11T12:04:32.541Z,771.21
2023-07-11T12:05:32.447Z,766.07
2023-07-11T12:06:32.472Z,759.58
2023-07-11T12:07:32.458Z,767.41
2023-07-11T12:08:32.441Z,767.41
2023-07-11T12:09:32.476Z,772.19
2023-07-11T12:10:32.433Z,780.75
2023-07-11T12:11:32.455Z,781.73
2023-07-11T12:12:32.451Z,778.18
2023-07-11T12:13:32.495Z,776.95
2023-07-11T12:14:32.427Z,777.32
2023-07-11T12:15:32.456Z,776.95
2023-07-11T12:16:42.165Z,771.21
2023-07-11T12:17:32.575Z,614.62
2023-07-11T12:18:32.437Z,769.12
2023-07-11T12:19:32.423Z,766.92
2023-07-11T12:20:32.872Z,766.92
2023-07-11T12:21:32.541Z,765.58
2023-07-11T12:22:32.427Z,765.21
2023-07-11T12:23:48.324Z,764.36
2023-07-11T12:25:32.464Z,763.5
2023-07-11T12:26:32.474Z,760.44
2023-07-11T12:27:32.430Z,757.87
2023-07-11T12:28:32.476Z,757.87
2023-07-11T12:29:32.436Z,754.33
2023-07-11T12:30:32.439Z,752.61
2023-07-11T12:31:33.411Z,750.04
2023-07-11T12:32:32.581Z,749.55
2023-07-11T12:33:32.453Z,746.99
2023-07-11T12:34:32.527Z,745.27
2023-07-11T12:35:32.439Z,743.07
2023-07-11T12:36:32.475Z,744.41
2023-07-11T12:37:33.402Z,743.07
2023-07-11T12:38:32.429Z,741.72
2023-07-11T12:39:32.431Z,738.3
2023-07-11T12:40:32.430Z,736.58
2023-07-11T12:41:43.436Z,736.09
2023-07-11T12:42:32.445Z,732.18
2023-07-11T12:43:32.438Z,730.1
2023-07-11T12:44:32.422Z,722.27
2023-07-11T12:45:32.451Z,716.65
2023-07-11T12:46:32.476Z,713.95
2023-07-11T12:47:32.470Z,717.5
2023-07-11T12:48:32.535Z,717.01
2023-07-11T12:49:32.453Z,719.58
2023-07-11T12:50:32.417Z,713.58
2023-07-11T12:51:32.454Z,714.44
2023-07-11T12:52:32.493Z,715.79
2023-07-11T12:53:33.929Z,713.95
2023-07-11T12:54:32.477Z,713.58
2023-07-11T12:55:32.526Z,713.09
2023-07-11T12:56:32.427Z,711.87
2023-07-11T12:57:32.453Z,704.9
2023-07-11T12:58:32.751Z,705.75
2023-07-11T12:59:32.449Z,704.9
2023-07-11T13:00:32.440Z,699.27
2023-07-11T13:01:32.486Z,701.48
2023-07-11T13:02:32.506Z,697.92
2023-07-11T13:03:32.508Z,694.01
2023-07-11T13:04:32.474Z,693.16
2023-07-11T13:05:32.447Z,687.53
2023-07-11T13:06:32.447Z,693.16